Tampa — WDB4806 — position and weather

sailwx.info

Track history (hours):
 
Tides and Currents Weather Stations Pressure Air Temp Water Temp Dewpoint Dewpoint Depression Visibility Wind Speed Wind Dir Waves Ship Positions

Tampa

Owner: Tampa Pilots LLC, Tampa, FL. More information available from US FCC via Universal Licensing System and Coast Guard Vessel Documentation Center.

Last reported at 2014-Oct-31 12:33 UTC. Time now 2014-Oct-31 12:53 UTC.
Position N 27°37' W 082°44'.

Length 19 m; draft 1.5 m.

Type: Pilot. MMSI: 366902570.

Date/timePositionNaut miles runAvg speedWind from/ knotsBaromVisibWave heightAir tempDewpointWater temp
2014-Oct-31 12:33N 27°37' W 082°44'1 0.8
2014-Oct-31 11:18N 27°36' W 082°44'1 1.5
2014-Oct-31 10:34N 27°37' W 082°44'2 2.5
2014-Oct-31 09:33N 27°35' W 082°46'0 0.0
2014-Oct-31 08:34N 27°35' W 082°46'0 0.0
2014-Oct-31 07:33N 27°35' W 082°46'0 0.0
2014-Oct-31 06:34N 27°35' W 082°46'0 0.0
2014-Oct-31 05:34N 27°35' W 082°46'0 0.0
2014-Oct-31 04:33N 27°35' W 082°46'0 0.0
2014-Oct-31 03:33N 27°35' W 082°46'0 0.0
2014-Oct-31 02:32N 27°35' W 082°46'0 0.0
2014-Oct-31 01:33N 27°35' W 082°46'0 0.0
2014-Oct-31 00:30N 27°35' W 082°46'0 0.0
2014-Oct-30 23:33N 27°35' W 082°46'2 2.2
2014-Oct-30 22:32N 27°37' W 082°44'2 2.2
2014-Oct-30 21:33N 27°35' W 082°46'2 2.3
2014-Oct-30 20:31N 27°37' W 082°44'0 0.1
2014-Oct-30 19:34N 27°37' W 082°44'2 2.1
2014-Oct-30 18:23N 27°35' W 082°46'0 0.0
2014-Oct-30 17:11N 27°35' W 082°46'0 0.0
2014-Oct-30 16:32N 27°35' W 082°46'0 0.0
2014-Oct-30 15:20N 27°35' W 082°46'0 0.0
2014-Oct-30 14:32N 27°35' W 082°46'0 0.0
2014-Oct-30 13:32N 27°35' W 082°46'0 0.0
2014-Oct-30 12:32N 27°35' W 082°46'5 5.4
2014-Oct-30 11:33N 27°36' W 082°51'7 7.0
2014-Oct-30 10:34N 27°37' W 082°44'2 2.4
2014-Oct-30 09:33N 27°35' W 082°46'0 0.0
2014-Oct-30 08:33N 27°35' W 082°46'0 0.0
2014-Oct-30 07:33N 27°35' W 082°46'0 0.0
2014-Oct-30 06:33N 27°35' W 082°46'0 0.0
2014-Oct-30 05:33N 27°35' W 082°46'4 4.4
2014-Oct-30 04:33N 27°36' W 082°50'6 6.1
2014-Oct-30 03:33N 27°37' W 082°44'0 0.0
2014-Oct-30 02:33N 27°37' W 082°44'2 2.5
2014-Oct-30 01:33N 27°35' W 082°46'3 3.1
2014-Oct-30 00:34N 27°37' W 082°49'5 4.5
2014-Oct-29 23:34N 27°37' W 082°44'1 0.9
2014-Oct-29 22:34N 27°36' W 082°44'2 1.5
2014-Oct-29 21:33N 27°35' W 082°46'0 0.0
2014-Oct-29 20:24N 27°35' W 082°46'0 0.0
2014-Oct-29 19:22N 27°35' W 082°46'0 0.0
2014-Oct-29 18:30N 27°35' W 082°46'0 0.0
2014-Oct-29 17:33N 27°35' W 082°46'0 0.0
2014-Oct-29 16:24N 27°35' W 082°46'0 0.0
2014-Oct-29 14:30N 27°35' W 082°46'0 0.0
2014-Oct-29 13:30N 27°35' W 082°46'2 2.6
2014-Oct-29 12:33N 27°37' W 082°44'2 2.5
2014-Oct-29 11:33N 27°35' W 082°46'2 2.5
2014-Oct-29 10:33N 27°37' W 082°44'2 2.5
2014-Oct-29 09:33N 27°35' W 082°46'0 0.0
2014-Oct-29 08:33N 27°35' W 082°46'8 7.7
2014-Oct-29 07:33N 27°36' W 082°54'8 8.3
2014-Oct-29 06:33N 27°36' W 082°45'1 1.4
2014-Oct-29 05:33N 27°35' W 082°46'0 0.0
2014-Oct-29 04:33N 27°35' W 082°46'0 0.0
2014-Oct-29 03:33N 27°35' W 082°46'0 0.0
2014-Oct-29 02:33N 27°35' W 082°46'0 0.0
2014-Oct-29 01:31N 27°35' W 082°46'0 0.0
2014-Oct-29 00:31N 27°35' W 082°46'0 0.0
2014-Oct-28 23:33N 27°35' W 082°46'2 2.5
2014-Oct-28 22:34N 27°37' W 082°44'2 2.2
2014-Oct-28 21:25N 27°35' W 082°46'0 0.0
2014-Oct-28 20:32N 27°35' W 082°46'1 0.7
2014-Oct-28 19:33N 27°36' W 082°45'1 0.6
2014-Oct-28 18:25N 27°35' W 082°46'0 0.0
2014-Oct-28 17:31N 27°35' W 082°46'5 5.2
2014-Oct-28 16:32N 27°36' W 082°51'5 4.8
2014-Oct-28 15:33N 27°37' W 082°46'1 1.2
2014-Oct-28 14:21N 27°35' W 082°46'0 0.0
2014-Oct-28 13:33N 27°35' W 082°46'0 0.0
2014-Oct-28 12:21N 27°35' W 082°46'0 0.0
2014-Oct-28 11:33N 27°35' W 082°46'1 1.4
2014-Oct-28 10:34N 27°37' W 082°46'1 1.4
2014-Oct-28 09:33N 27°35' W 082°46'0 0.0
2014-Oct-28 08:33N 27°35' W 082°46'0 0.0
2014-Oct-28 07:33N 27°35' W 082°46'2 2.3
2014-Oct-28 06:34N 27°37' W 082°44'2 2.2
2014-Oct-28 05:32N 27°35' W 082°46'0 0.4
2014-Oct-28 04:34N 27°35' W 082°45'0 0.3
2014-Oct-28 03:34N 27°36' W 082°45'1 0.6
2014-Oct-28 02:33N 27°35' W 082°46'0 0.0
2014-Oct-28 01:33N 27°35' W 082°46'4 3.7
2014-Oct-28 00:33N 27°36' W 082°50'4 3.7
2014-Oct-27 23:34N 27°35' W 082°46'2 2.1
2014-Oct-27 22:33N 27°37' W 082°44'2 2.1
2014-Oct-27 21:32N 27°35' W 082°46'1 0.6
2014-Oct-27 20:33N 27°36' W 082°45'1 0.6
2014-Oct-27 19:33N 27°36' W 082°45'1 1.0
2014-Oct-27 18:32N 27°35' W 082°46'0 0.0
2014-Oct-27 17:32N 27°35' W 082°46'1 1.1
2014-Oct-27 16:33N 27°36' W 082°46'5 5.3
2014-Oct-27 15:34N 27°36' W 082°51'7 7.0
2014-Oct-27 14:34N 27°37' W 082°44'2 1.9
2014-Oct-27 13:34N 27°36' W 082°45'9 8.9
2014-Oct-27 12:34N 27°36' W 082°55'10 9.9
2014-Oct-27 11:34N 27°36' W 082°44'1 0.8
2014-Oct-27 10:34N 27°37' W 082°44'2 2.5
2014-Oct-27 09:33N 27°35' W 082°46'2 2.2
2014-Oct-27 08:33N 27°37' W 082°47'1 1.0
2014-Oct-27 07:33N 27°37' W 082°46'2 1.5
2014-Oct-27 06:33N 27°35' W 082°46'0 0.4
2014-Oct-27 05:33N 27°36' W 082°45'0 0.1
2014-Oct-27 04:34N 27°36' W 082°45'0 0.4
2014-Oct-27 03:33N 27°35' W 082°46'0 0.0
2014-Oct-27 02:33N 27°35' W 082°46'0 0.0
2014-Oct-27 01:33N 27°35' W 082°46'0 0.0
2014-Oct-27 00:18N 27°35' W 082°46'0 0.0
2014-Oct-26 23:18N 27°35' W 082°46'0 0.0
2014-Oct-26 22:33N 27°35' W 082°46'0 0.0
2014-Oct-26 21:33N 27°35' W 082°46'0 0.0
2014-Oct-26 20:33N 27°35' W 082°46'0 0.0
2014-Oct-26 19:30N 27°35' W 082°46'0 0.0
2014-Oct-26 18:33N 27°35' W 082°46'0 0.0
2014-Oct-26 17:33N 27°35' W 082°46'0 0.0
2014-Oct-26 16:30N 27°35' W 082°46'0 0.0
2014-Oct-26 15:33N 27°35' W 082°46'0 0.0
2014-Oct-26 14:33N 27°35' W 082°46'0 0.0
2014-Oct-26 13:33N 27°35' W 082°46'1 1.4
2014-Oct-26 12:33N 27°36' W 082°46'4 4.0
2014-Oct-26 11:34N 27°36' W 082°51'5 4.7
2014-Oct-26 10:34N 27°35' W 082°46'0 0.1
2014-Oct-26 09:33N 27°35' W 082°46'0 0.0
2014-Oct-26 08:30N 27°35' W 082°46'0 0.0
2014-Oct-26 07:33N 27°35' W 082°46'6 5.7
2014-Oct-26 06:33N 27°36' W 082°52'6 6.2
2014-Oct-26 05:33N 27°36' W 082°45'1 1.4
2014-Oct-26 04:33N 27°35' W 082°46'0 0.0
2014-Oct-26 03:30N 27°35' W 082°46'0 0.0
2014-Oct-26 01:33N 27°35' W 082°46'0 0.0
2014-Oct-25 23:30N 27°35' W 082°46'0 0.0
2014-Oct-25 22:03N 27°35' W 082°46'0 0.0
2014-Oct-25 21:03N 27°35' W 082°46'0 0.0
2014-Oct-25 20:33N 27°35' W 082°46'0 0.0
2014-Oct-25 19:33N 27°35' W 082°46'1 0.5
2014-Oct-25 18:07N 27°36' W 082°45'712.2
2014-Oct-25 17:33N 27°36' W 082°53'7 5.0
2014-Oct-25 16:14N 27°35' W 082°46'0 0.0
2014-Oct-25 15:32N 27°35' W 082°46'0 0.0
2014-Oct-25 14:32N 27°35' W 082°46'4 3.7
2014-Oct-25 13:32N 27°36' W 082°50'5 4.9
2014-Oct-25 12:34N 27°36' W 082°55'10 9.6
2014-Oct-25 11:33N 27°36' W 082°44'1 0.7
2014-Oct-25 10:34N 27°37' W 082°44'2 2.4
2014-Oct-25 09:31N 27°35' W 082°46'0 0.0
2014-Oct-25 08:31N 27°35' W 082°46'0 0.0
2014-Oct-25 07:31N 27°35' W 082°46'0 0.0
2014-Oct-25 06:31N 27°35' W 082°46'2 1.8
2014-Oct-25 05:33N 27°37' W 082°47'2 1.7
2014-Oct-25 04:32N 27°35' W 082°46'2 1.6
2014-Oct-25 03:34N 27°37' W 082°46'0 0.3
2014-Oct-25 02:33N 27°36' W 082°46'1 1.3
2014-Oct-25 01:31N 27°35' W 082°46'5 5.5
2014-Oct-25 00:33N 27°36' W 082°51'5 5.3
2014-Oct-24 23:33N 27°35' W 082°46'2 2.1
2014-Oct-24 22:33N 27°37' W 082°44'2 2.1
2014-Oct-24 21:33N 27°35' W 082°46'4 4.3
2014-Oct-24 20:34N 27°36' W 082°50'5 5.2
2014-Oct-24 19:33N 27°36' W 082°44'1 1.4
2014-Oct-24 18:32N 27°35' W 082°46'2 2.3
2014-Oct-24 17:34N 27°37' W 082°48'0 0.1
2014-Oct-24 16:34N 27°36' W 082°48'2 2.1
2014-Oct-24 15:32N 27°35' W 082°46'0 0.0
2014-Oct-24 14:32N 27°35' W 082°46'0 0.0
2014-Oct-24 13:32N 27°35' W 082°46'0 0.0
2014-Oct-24 12:29N 27°35' W 082°46'0 0.0
2014-Oct-24 11:32N 27°35' W 082°46'8 7.7
2014-Oct-24 10:32N 27°36' W 082°54'8 8.3
2014-Oct-24 09:34N 27°36' W 082°45'6 6.3
2014-Oct-24 08:34N 27°36' W 082°52'7 6.8
2014-Oct-24 07:33N 27°36' W 082°44'2 1.7
2014-Oct-24 06:32N 27°35' W 082°46'0 0.0
2014-Oct-24 05:32N 27°35' W 082°46'0 0.0
2014-Oct-24 04:32N 27°35' W 082°46'0 0.0
2014-Oct-24 03:32N 27°35' W 082°46'0 0.0
2014-Oct-24 02:32N 27°35' W 082°46'0 0.0
2014-Oct-24 01:29N 27°35' W 082°46'0 0.0
2014-Oct-24 00:29N 27°35' W 082°46'2 1.2
2014-Oct-23 23:09N 27°37' W 082°46'3 3.6
2014-Oct-23 22:26N 27°37' W 082°44'2 2.7
2014-Oct-23 21:31N 27°35' W 082°46'0 0.0
2014-Oct-23 20:28N 27°35' W 082°46'0 0.5
2014-Oct-23 19:33N 27°35' W 082°45'5 4.6
2014-Oct-23 18:33N 27°36' W 082°50'4 4.2
2014-Oct-23 17:33N 27°35' W 082°46'0 0.0
2014-Oct-23 16:33N 27°35' W 082°46'0 0.0
2014-Oct-23 12:28N 27°35' W 082°46'6 6.5
2014-Oct-23 11:34N 27°36' W 082°52'8 7.6
2014-Oct-23 10:34N 27°37' W 082°44'0 0.0
2014-Oct-23 09:32N 27°37' W 082°44'9 9.0
2014-Oct-23 08:31N 27°36' W 082°54'8 7.9
2014-Oct-23 07:34N 27°35' W 082°45'0 0.2
2014-Oct-23 06:32N 27°35' W 082°46'0 0.0
2014-Oct-23 05:32N 27°35' W 082°46'0 0.0
2014-Oct-23 04:23N 27°35' W 082°46'0 0.0
2014-Oct-23 03:32N 27°35' W 082°46'0 0.0
2014-Oct-23 02:29N 27°35' W 082°46'2 2.1
2014-Oct-23 01:34N 27°37' W 082°47'2 1.9
2014-Oct-23 00:32N 27°35' W 082°46'2 1.9
2014-Oct-22 23:33N 27°37' W 082°47'3 2.9
2014-Oct-22 22:33N 27°37' W 082°44'1 0.9
2014-Oct-22 21:33N 27°36' W 082°44'1 1.5
2014-Oct-22 20:32N 27°35' W 082°46'5 4.8
2014-Oct-22 19:34N 27°36' W 082°51'5 4.6
2014-Oct-22 18:33N 27°35' W 082°46'1 0.6
2014-Oct-22 17:34N 27°36' W 082°45'1 0.6
2014-Oct-22 16:31N 27°35' W 082°46'0 0.0
2014-Oct-22 15:28N 27°35' W 082°46'1 1.1
2014-Oct-22 14:31N 27°36' W 082°45'1 1.0
2014-Oct-22 13:31N 27°35' W 082°46'0 0.0
2014-Oct-22 12:31N 27°35' W 082°46'0 0.0
2014-Oct-22 11:31N 27°35' W 082°46'2 2.6
2014-Oct-22 10:33N 27°37' W 082°44'3 3.0
2014-Oct-22 09:33N 27°36' W 082°47'1 0.9
2014-Oct-22 08:34N 27°36' W 082°46'1 1.3
2014-Oct-22 07:33N 27°35' W 082°46'0 0.0
2014-Oct-22 06:33N 27°35' W 082°46'0 0.0
2014-Oct-22 05:33N 27°35' W 082°46'0 0.0
2014-Oct-22 04:30N 27°35' W 082°46'0 0.0
2014-Oct-22 03:33N 27°35' W 082°46'0 0.0
2014-Oct-22 02:33N 27°35' W 082°46'2 1.4
2014-Oct-22 01:28N 27°37' W 082°46'2 1.1
2014-Oct-22 00:07N 27°35' W 082°46'0 0.0
2014-Oct-21 22:31N 27°35' W 082°46'0 0.1
2014-Oct-21 21:33N 27°35' W 082°46'5 4.8
2014-Oct-21 20:33N 27°36' W 082°51'6 6.3
2014-Oct-21 19:33N 27°37' W 082°44'0 0.3
2014-Oct-21 18:33N 27°37' W 082°44'2 2.4
2014-Oct-21 17:32N 27°35' W 082°46'0 0.0
2014-Oct-21 16:32N 27°35' W 082°46'0 0.0
2014-Oct-21 15:32N 27°35' W 082°46'0 0.0
2014-Oct-21 14:32N 27°35' W 082°46'2 2.5
2014-Oct-21 13:32N 27°37' W 082°44'  
Track history (hours):
 
Tides and Currents Weather Stations Pressure Air Temp Water Temp Dewpoint Dewpoint Depression Visibility Wind Speed Wind Dir Waves Ship Positions

Tampa

Owner: Tampa Pilots LLC, Tampa, FL. More information available from US FCC via Universal Licensing System and Coast Guard Vessel Documentation Center.

Last reported at 2014-Oct-31 12:33 UTC. Time now 2014-Oct-31 12:53 UTC.
Position N 27°37' W 082°44'.

Length 19 m; draft 1.5 m.

Type: Pilot. MMSI: 366902570.

Date/timePositionNaut miles runAvg speedWind from/ knotsBaromVisibWave heightAir tempDewpointWater temp
2014-Oct-31 12:33N 27°37' W 082°44'1 0.8
2014-Oct-31 11:18N 27°36' W 082°44'1 1.5
2014-Oct-31 10:34N 27°37' W 082°44'2 2.5
2014-Oct-31 09:33N 27°35' W 082°46'0 0.0
2014-Oct-31 08:34N 27°35' W 082°46'0 0.0
2014-Oct-31 07:33N 27°35' W 082°46'0 0.0
2014-Oct-31 06:34N 27°35' W 082°46'0 0.0
2014-Oct-31 05:34N 27°35' W 082°46'0 0.0
2014-Oct-31 04:33N 27°35' W 082°46'0 0.0
2014-Oct-31 03:33N 27°35' W 082°46'0 0.0
2014-Oct-31 02:32N 27°35' W 082°46'0 0.0
2014-Oct-31 01:33N 27°35' W 082°46'0 0.0
2014-Oct-31 00:30N 27°35' W 082°46'0 0.0
2014-Oct-30 23:33N 27°35' W 082°46'2 2.2
2014-Oct-30 22:32N 27°37' W 082°44'2 2.2
2014-Oct-30 21:33N 27°35' W 082°46'2 2.3
2014-Oct-30 20:31N 27°37' W 082°44'0 0.1
2014-Oct-30 19:34N 27°37' W 082°44'2 2.1
2014-Oct-30 18:23N 27°35' W 082°46'0 0.0
2014-Oct-30 17:11N 27°35' W 082°46'0 0.0
2014-Oct-30 16:32N 27°35' W 082°46'0 0.0
2014-Oct-30 15:20N 27°35' W 082°46'0 0.0
2014-Oct-30 14:32N 27°35' W 082°46'0 0.0
2014-Oct-30 13:32N 27°35' W 082°46'0 0.0
2014-Oct-30 12:32N 27°35' W 082°46'5 5.4
2014-Oct-30 11:33N 27°36' W 082°51'7 7.0
2014-Oct-30 10:34N 27°37' W 082°44'2 2.4
2014-Oct-30 09:33N 27°35' W 082°46'0 0.0
2014-Oct-30 08:33N 27°35' W 082°46'0 0.0
2014-Oct-30 07:33N 27°35' W 082°46'0 0.0
2014-Oct-30 06:33N 27°35' W 082°46'0 0.0
2014-Oct-30 05:33N 27°35' W 082°46'4 4.4
2014-Oct-30 04:33N 27°36' W 082°50'6 6.1
2014-Oct-30 03:33N 27°37' W 082°44'0 0.0
2014-Oct-30 02:33N 27°37' W 082°44'2 2.5
2014-Oct-30 01:33N 27°35' W 082°46'3 3.1
2014-Oct-30 00:34N 27°37' W 082°49'5 4.5
2014-Oct-29 23:34N 27°37' W 082°44'1 0.9
2014-Oct-29 22:34N 27°36' W 082°44'2 1.5
2014-Oct-29 21:33N 27°35' W 082°46'0 0.0
2014-Oct-29 20:24N 27°35' W 082°46'0 0.0
2014-Oct-29 19:22N 27°35' W 082°46'0 0.0
2014-Oct-29 18:30N 27°35' W 082°46'0 0.0
2014-Oct-29 17:33N 27°35' W 082°46'0 0.0
2014-Oct-29 16:24N 27°35' W 082°46'0 0.0
2014-Oct-29 14:30N 27°35' W 082°46'0 0.0
2014-Oct-29 13:30N 27°35' W 082°46'2 2.6
2014-Oct-29 12:33N 27°37' W 082°44'2 2.5
2014-Oct-29 11:33N 27°35' W 082°46'2 2.5
2014-Oct-29 10:33N 27°37' W 082°44'2 2.5
2014-Oct-29 09:33N 27°35' W 082°46'0 0.0
2014-Oct-29 08:33N 27°35' W 082°46'8 7.7
2014-Oct-29 07:33N 27°36' W 082°54'8 8.3
2014-Oct-29 06:33N 27°36' W 082°45'1 1.4
2014-Oct-29 05:33N 27°35' W 082°46'0 0.0
2014-Oct-29 04:33N 27°35' W 082°46'0 0.0
2014-Oct-29 03:33N 27°35' W 082°46'0 0.0
2014-Oct-29 02:33N 27°35' W 082°46'0 0.0
2014-Oct-29 01:31N 27°35' W 082°46'0 0.0
2014-Oct-29 00:31N 27°35' W 082°46'0 0.0
2014-Oct-28 23:33N 27°35' W 082°46'2 2.5
2014-Oct-28 22:34N 27°37' W 082°44'2 2.2
2014-Oct-28 21:25N 27°35' W 082°46'0 0.0
2014-Oct-28 20:32N 27°35' W 082°46'1 0.7
2014-Oct-28 19:33N 27°36' W 082°45'1 0.6
2014-Oct-28 18:25N 27°35' W 082°46'0 0.0
2014-Oct-28 17:31N 27°35' W 082°46'5 5.2
2014-Oct-28 16:32N 27°36' W 082°51'5 4.8
2014-Oct-28 15:33N 27°37' W 082°46'1 1.2
2014-Oct-28 14:21N 27°35' W 082°46'0 0.0
2014-Oct-28 13:33N 27°35' W 082°46'0 0.0
2014-Oct-28 12:21N 27°35' W 082°46'0 0.0
2014-Oct-28 11:33N 27°35' W 082°46'1 1.4
2014-Oct-28 10:34N 27°37' W 082°46'1 1.4
2014-Oct-28 09:33N 27°35' W 082°46'0 0.0
2014-Oct-28 08:33N 27°35' W 082°46'0 0.0
2014-Oct-28 07:33N 27°35' W 082°46'2 2.3
2014-Oct-28 06:34N 27°37' W 082°44'2 2.2
2014-Oct-28 05:32N 27°35' W 082°46'0 0.4
2014-Oct-28 04:34N 27°35' W 082°45'0 0.3
2014-Oct-28 03:34N 27°36' W 082°45'1 0.6
2014-Oct-28 02:33N 27°35' W 082°46'0 0.0
2014-Oct-28 01:33N 27°35' W 082°46'4 3.7
2014-Oct-28 00:33N 27°36' W 082°50'4 3.7
2014-Oct-27 23:34N 27°35' W 082°46'2 2.1
2014-Oct-27 22:33N 27°37' W 082°44'2 2.1
2014-Oct-27 21:32N 27°35' W 082°46'1 0.6
2014-Oct-27 20:33N 27°36' W 082°45'1 0.6
2014-Oct-27 19:33N 27°36' W 082°45'1 1.0
2014-Oct-27 18:32N 27°35' W 082°46'0 0.0
2014-Oct-27 17:32N 27°35' W 082°46'1 1.1
2014-Oct-27 16:33N 27°36' W 082°46'5 5.3
2014-Oct-27 15:34N 27°36' W 082°51'7 7.0
2014-Oct-27 14:34N 27°37' W 082°44'2 1.9
2014-Oct-27 13:34N 27°36' W 082°45'9 8.9
2014-Oct-27 12:34N 27°36' W 082°55'10 9.9
2014-Oct-27 11:34N 27°36' W 082°44'1 0.8
2014-Oct-27 10:34N 27°37' W 082°44'2 2.5
2014-Oct-27 09:33N 27°35' W 082°46'2 2.2
2014-Oct-27 08:33N 27°37' W 082°47'1 1.0
2014-Oct-27 07:33N 27°37' W 082°46'2 1.5
2014-Oct-27 06:33N 27°35' W 082°46'0 0.4
2014-Oct-27 05:33N 27°36' W 082°45'0 0.1
2014-Oct-27 04:34N 27°36' W 082°45'0 0.4
2014-Oct-27 03:33N 27°35' W 082°46'0 0.0
2014-Oct-27 02:33N 27°35' W 082°46'0 0.0
2014-Oct-27 01:33N 27°35' W 082°46'0 0.0
2014-Oct-27 00:18N 27°35' W 082°46'0 0.0
2014-Oct-26 23:18N 27°35' W 082°46'0 0.0
2014-Oct-26 22:33N 27°35' W 082°46'0 0.0
2014-Oct-26 21:33N 27°35' W 082°46'0 0.0
2014-Oct-26 20:33N 27°35' W 082°46'0 0.0
2014-Oct-26 19:30N 27°35' W 082°46'0 0.0
2014-Oct-26 18:33N 27°35' W 082°46'0 0.0
2014-Oct-26 17:33N 27°35' W 082°46'0 0.0
2014-Oct-26 16:30N 27°35' W 082°46'0 0.0
2014-Oct-26 15:33N 27°35' W 082°46'0 0.0
2014-Oct-26 14:33N 27°35' W 082°46'0 0.0
2014-Oct-26 13:33N 27°35' W 082°46'1 1.4
2014-Oct-26 12:33N 27°36' W 082°46'4 4.0
2014-Oct-26 11:34N 27°36' W 082°51'5 4.7
2014-Oct-26 10:34N 27°35' W 082°46'0 0.1
2014-Oct-26 09:33N 27°35' W 082°46'0 0.0
2014-Oct-26 08:30N 27°35' W 082°46'0 0.0
2014-Oct-26 07:33N 27°35' W 082°46'6 5.7
2014-Oct-26 06:33N 27°36' W 082°52'6 6.2
2014-Oct-26 05:33N 27°36' W 082°45'1 1.4
2014-Oct-26 04:33N 27°35' W 082°46'0 0.0
2014-Oct-26 03:30N 27°35' W 082°46'0 0.0
2014-Oct-26 01:33N 27°35' W 082°46'0 0.0
2014-Oct-25 23:30N 27°35' W 082°46'0 0.0
2014-Oct-25 22:03N 27°35' W 082°46'0 0.0
2014-Oct-25 21:03N 27°35' W 082°46'0 0.0
2014-Oct-25 20:33N 27°35' W 082°46'0 0.0
2014-Oct-25 19:33N 27°35' W 082°46'1 0.5
2014-Oct-25 18:07N 27°36' W 082°45'712.2
2014-Oct-25 17:33N 27°36' W 082°53'7 5.0
2014-Oct-25 16:14N 27°35' W 082°46'0 0.0
2014-Oct-25 15:32N 27°35' W 082°46'0 0.0
2014-Oct-25 14:32N 27°35' W 082°46'4 3.7
2014-Oct-25 13:32N 27°36' W 082°50'5 4.9
2014-Oct-25 12:34N 27°36' W 082°55'10 9.6
2014-Oct-25 11:33N 27°36' W 082°44'1 0.7
2014-Oct-25 10:34N 27°37' W 082°44'2 2.4
2014-Oct-25 09:31N 27°35' W 082°46'0 0.0
2014-Oct-25 08:31N 27°35' W 082°46'0 0.0
2014-Oct-25 07:31N 27°35' W 082°46'0 0.0
2014-Oct-25 06:31N 27°35' W 082°46'2 1.8
2014-Oct-25 05:33N 27°37' W 082°47'2 1.7
2014-Oct-25 04:32N 27°35' W 082°46'2 1.6
2014-Oct-25 03:34N 27°37' W 082°46'0 0.3
2014-Oct-25 02:33N 27°36' W 082°46'1 1.3
2014-Oct-25 01:31N 27°35' W 082°46'5 5.5
2014-Oct-25 00:33N 27°36' W 082°51'5 5.3
2014-Oct-24 23:33N 27°35' W 082°46'2 2.1
2014-Oct-24 22:33N 27°37' W 082°44'2 2.1
2014-Oct-24 21:33N 27°35' W 082°46'4 4.3
2014-Oct-24 20:34N 27°36' W 082°50'5 5.2
2014-Oct-24 19:33N 27°36' W 082°44'1 1.4
2014-Oct-24 18:32N 27°35' W 082°46'2 2.3
2014-Oct-24 17:34N 27°37' W 082°48'0 0.1
2014-Oct-24 16:34N 27°36' W 082°48'2 2.1
2014-Oct-24 15:32N 27°35' W 082°46'0 0.0
2014-Oct-24 14:32N 27°35' W 082°46'0 0.0
2014-Oct-24 13:32N 27°35' W 082°46'0 0.0
2014-Oct-24 12:29N 27°35' W 082°46'0 0.0
2014-Oct-24 11:32N 27°35' W 082°46'8 7.7
2014-Oct-24 10:32N 27°36' W 082°54'8 8.3
2014-Oct-24 09:34N 27°36' W 082°45'6 6.3
2014-Oct-24 08:34N 27°36' W 082°52'7 6.8
2014-Oct-24 07:33N 27°36' W 082°44'2 1.7
2014-Oct-24 06:32N 27°35' W 082°46'0 0.0
2014-Oct-24 05:32N 27°35' W 082°46'0 0.0
2014-Oct-24 04:32N 27°35' W 082°46'0 0.0
2014-Oct-24 03:32N 27°35' W 082°46'0 0.0
2014-Oct-24 02:32N 27°35' W 082°46'0 0.0
2014-Oct-24 01:29N 27°35' W 082°46'0 0.0
2014-Oct-24 00:29N 27°35' W 082°46'2 1.2
2014-Oct-23 23:09N 27°37' W 082°46'3 3.6
2014-Oct-23 22:26N 27°37' W 082°44'2 2.7
2014-Oct-23 21:31N 27°35' W 082°46'0 0.0
2014-Oct-23 20:28N 27°35' W 082°46'0 0.5
2014-Oct-23 19:33N 27°35' W 082°45'5 4.6
2014-Oct-23 18:33N 27°36' W 082°50'4 4.2
2014-Oct-23 17:33N 27°35' W 082°46'0 0.0
2014-Oct-23 16:33N 27°35' W 082°46'0 0.0
2014-Oct-23 12:28N 27°35' W 082°46'6 6.5
2014-Oct-23 11:34N 27°36' W 082°52'8 7.6
2014-Oct-23 10:34N 27°37' W 082°44'0 0.0
2014-Oct-23 09:32N 27°37' W 082°44'9 9.0
2014-Oct-23 08:31N 27°36' W 082°54'8 7.9
2014-Oct-23 07:34N 27°35' W 082°45'0 0.2
2014-Oct-23 06:32N 27°35' W 082°46'0 0.0
2014-Oct-23 05:32N 27°35' W 082°46'0 0.0
2014-Oct-23 04:23N 27°35' W 082°46'0 0.0
2014-Oct-23 03:32N 27°35' W 082°46'0 0.0
2014-Oct-23 02:29N 27°35' W 082°46'2 2.1
2014-Oct-23 01:34N 27°37' W 082°47'2 1.9
2014-Oct-23 00:32N 27°35' W 082°46'2 1.9
2014-Oct-22 23:33N 27°37' W 082°47'3 2.9
2014-Oct-22 22:33N 27°37' W 082°44'1 0.9
2014-Oct-22 21:33N 27°36' W 082°44'1 1.5
2014-Oct-22 20:32N 27°35' W 082°46'5 4.8
2014-Oct-22 19:34N 27°36' W 082°51'5 4.6
2014-Oct-22 18:33N 27°35' W 082°46'1 0.6
2014-Oct-22 17:34N 27°36' W 082°45'1 0.6
2014-Oct-22 16:31N 27°35' W 082°46'0 0.0
2014-Oct-22 15:28N 27°35' W 082°46'1 1.1
2014-Oct-22 14:31N 27°36' W 082°45'1 1.0
2014-Oct-22 13:31N 27°35' W 082°46'0 0.0
2014-Oct-22 12:31N 27°35' W 082°46'0 0.0
2014-Oct-22 11:31N 27°35' W 082°46'2 2.6
2014-Oct-22 10:33N 27°37' W 082°44'3 3.0
2014-Oct-22 09:33N 27°36' W 082°47'1 0.9
2014-Oct-22 08:34N 27°36' W 082°46'1 1.3
2014-Oct-22 07:33N 27°35' W 082°46'0 0.0
2014-Oct-22 06:33N 27°35' W 082°46'0 0.0
2014-Oct-22 05:33N 27°35' W 082°46'0 0.0
2014-Oct-22 04:30N 27°35' W 082°46'0 0.0
2014-Oct-22 03:33N 27°35' W 082°46'0 0.0
2014-Oct-22 02:33N 27°35' W 082°46'2 1.4
2014-Oct-22 01:28N 27°37' W 082°46'2 1.1
2014-Oct-22 00:07N 27°35' W 082°46'0 0.0
2014-Oct-21 22:31N 27°35' W 082°46'0 0.1
2014-Oct-21 21:33N 27°35' W 082°46'5 4.8
2014-Oct-21 20:33N 27°36' W 082°51'6 6.3
2014-Oct-21 19:33N 27°37' W 082°44'0 0.3
2014-Oct-21 18:33N 27°37' W 082°44'2 2.4
2014-Oct-21 17:32N 27°35' W 082°46'0 0.0
2014-Oct-21 16:32N 27°35' W 082°46'0 0.0
2014-Oct-21 15:32N 27°35' W 082°46'0 0.0
2014-Oct-21 14:32N 27°35' W 082°46'2 2.5
2014-Oct-21 13:32N 27°37' W 082°44'  

Dump ship's entire track history